sensor_id;sensor_type;location;lat;lon;timestamp;P1;durP1;ratioP1;P2;durP2;ratioP2
70138;SDS011;57507;43.056;0.150;2022-12-07T00:01:05;0.55;;;0.40;;
70138;SDS011;57507;43.056;0.150;2022-12-07T00:03:31;0.45;;;0.43;;
70138;SDS011;57507;43.056;0.150;2022-12-07T00:05:57;0.70;;;0.50;;
70138;SDS011;57507;43.056;0.150;2022-12-07T00:08:23;0.98;;;0.50;;
70138;SDS011;57507;43.056;0.150;2022-12-07T00:10:49;0.82;;;0.60;;
70138;SDS011;57507;43.056;0.150;2022-12-07T00:13:15;0.75;;;0.50;;
70138;SDS011;57507;43.056;0.150;2022-12-07T00:15:42;0.82;;;0.50;;
70138;SDS011;57507;43.056;0.150;2022-12-07T00:18:08;0.45;;;0.45;;
70138;SDS011;57507;43.056;0.150;2022-12-07T00:20:34;0.73;;;0.60;;
70138;SDS011;57507;43.056;0.150;2022-12-07T00:23:00;0.75;;;0.70;;
70138;SDS011;57507;43.056;0.150;2022-12-07T00:25:26;0.75;;;0.40;;
70138;SDS011;57507;43.056;0.150;2022-12-07T00:27:52;1.35;;;0.45;;
70138;SDS011;57507;43.056;0.150;2022-12-07T00:30:22;1.00;;;0.47;;
70138;SDS011;57507;43.056;0.150;2022-12-07T00:32:49;2.17;;;0.50;;
70138;SDS011;57507;43.056;0.150;2022-12-07T00:35:15;0.68;;;0.40;;
70138;SDS011;57507;43.056;0.150;2022-12-07T00:37:41;0.93;;;0.50;;
70138;SDS011;57507;43.056;0.150;2022-12-07T00:40:07;0.40;;;0.40;;
70138;SDS011;57507;43.056;0.150;2022-12-07T00:42:33;0.70;;;0.50;;
70138;SDS011;57507;43.056;0.150;2022-12-07T00:44:59;0.40;;;0.40;;
70138;SDS011;57507;43.056;0.150;2022-12-07T00:47:25;0.75;;;0.50;;
70138;SDS011;57507;43.056;0.150;2022-12-07T00:49:51;0.60;;;0.50;;
70138;SDS011;57507;43.056;0.150;2022-12-07T00:52:17;1.10;;;0.40;;
70138;SDS011;57507;43.056;0.150;2022-12-07T00:54:43;1.08;;;0.40;;
70138;SDS011;57507;43.056;0.150;2022-12-07T00:57:09;0.50;;;0.50;;
70138;SDS011;57507;43.056;0.150;2022-12-07T00:59:35;0.50;;;0.40;;
70138;SDS011;57507;43.056;0.150;2022-12-07T01:02:01;1.27;;;0.30;;
70138;SDS011;57507;43.056;0.150;2022-12-07T01:04:27;0.95;;;0.60;;
70138;SDS011;57507;43.056;0.150;2022-12-07T01:06:54;0.50;;;0.35;;
70138;SDS011;57507;43.056;0.150;2022-12-07T01:09:20;2.83;;;0.93;;
70138;SDS011;57507;43.056;0.150;2022-12-07T01:11:46;0.52;;;0.50;;
70138;SDS011;57507;43.056;0.150;2022-12-07T01:14:12;0.40;;;0.40;;
70138;SDS011;57507;43.056;0.150;2022-12-07T01:16:38;0.82;;;0.50;;
70138;SDS011;57507;43.056;0.150;2022-12-07T01:19:05;0.40;;;0.40;;
70138;SDS011;57507;43.056;0.150;2022-12-07T01:21:32;0.77;;;0.40;;
70138;SDS011;57507;43.056;0.150;2022-12-07T01:24:03;0.38;;;0.30;;
70138;SDS011;57507;43.056;0.150;2022-12-07T01:26:30;0.40;;;0.40;;
70138;SDS011;57507;43.056;0.150;2022-12-07T01:28:56;1.33;;;0.40;;
70138;SDS011;57507;43.056;0.150;2022-12-07T01:31:24;1.15;;;0.60;;
70138;SDS011;57507;43.056;0.150;2022-12-07T01:33:52;0.47;;;0.40;;
70138;SDS011;57507;43.056;0.150;2022-12-07T01:36:22;0.75;;;0.55;;
70138;SDS011;57507;43.056;0.150;2022-12-07T01:38:49;0.50;;;0.50;;
70138;SDS011;57507;43.056;0.150;2022-12-07T01:41:18;1.13;;;0.60;;
70138;SDS011;57507;43.056;0.150;2022-12-07T01:46:29;0.30;;;0.30;;
70138;SDS011;57507;43.056;0.150;2022-12-07T01:48:55;0.93;;;0.50;;
70138;SDS011;57507;43.056;0.150;2022-12-07T01:51:22;0.32;;;0.32;;
70138;SDS011;57507;43.056;0.150;2022-12-07T01:53:48;0.38;;;0.35;;
70138;SDS011;57507;43.056;0.150;2022-12-07T01:56:15;1.02;;;0.80;;
70138;SDS011;57507;43.056;0.150;2022-12-07T01:58:43;0.60;;;0.50;;
70138;SDS011;57507;43.056;0.150;2022-12-07T02:01:10;0.98;;;0.45;;
70138;SDS011;57507;43.056;0.150;2022-12-07T02:03:40;1.05;;;0.40;;
70138;SDS011;57507;43.056;0.150;2022-12-07T02:06:06;0.90;;;0.55;;
70138;SDS011;57507;43.056;0.150;2022-12-07T02:08:33;0.40;;;0.40;;
70138;SDS011;57507;43.056;0.150;2022-12-07T02:11:00;0.43;;;0.40;;
70138;SDS011;57507;43.056;0.150;2022-12-07T02:13:31;0.82;;;0.60;;
70138;SDS011;57507;43.056;0.150;2022-12-07T02:18:27;0.80;;;0.50;;
70138;SDS011;57507;43.056;0.150;2022-12-07T02:26:14;0.63;;;0.50;;
70138;SDS011;57507;43.056;0.150;2022-12-07T02:31:26;0.65;;;0.57;;
70138;SDS011;57507;43.056;0.150;2022-12-07T02:33:56;1.02;;;0.47;;
70138;SDS011;57507;43.056;0.150;2022-12-07T02:36:27;0.43;;;0.40;;
70138;SDS011;57507;43.056;0.150;2022-12-07T02:41:47;0.52;;;0.47;;
70138;SDS011;57507;43.056;0.150;2022-12-07T02:44:14;1.50;;;0.50;;
70138;SDS011;57507;43.056;0.150;2022-12-07T02:46:43;0.93;;;0.45;;
70138;SDS011;57507;43.056;0.150;2022-12-07T02:49:10;0.75;;;0.52;;
70138;SDS011;57507;43.056;0.150;2022-12-07T02:51:40;0.70;;;0.40;;
70138;SDS011;57507;43.056;0.150;2022-12-07T02:54:11;0.77;;;0.50;;
70138;SDS011;57507;43.056;0.150;2022-12-07T03:06:46;0.50;;;0.43;;
70138;SDS011;57507;43.056;0.150;2022-12-07T03:09:20;0.77;;;0.50;;
70138;SDS011;57507;43.056;0.150;2022-12-07T03:11:47;0.40;;;0.40;;
70138;SDS011;57507;43.056;0.150;2022-12-07T03:16:43;2.60;;;0.60;;
70138;SDS011;57507;43.056;0.150;2022-12-07T03:19:13;1.90;;;0.60;;
70138;SDS011;57507;43.056;0.150;2022-12-07T03:21:46;0.60;;;0.57;;
70138;SDS011;57507;43.056;0.150;2022-12-07T03:24:14;3.47;;;0.60;;
70138;SDS011;57507;43.056;0.150;2022-12-07T03:26:41;0.50;;;0.40;;
70138;SDS011;57507;43.056;0.150;2022-12-07T03:29:10;0.70;;;0.50;;
70138;SDS011;57507;43.056;0.150;2022-12-07T03:31:39;1.77;;;0.47;;
70138;SDS011;57507;43.056;0.150;2022-12-07T03:34:18;0.50;;;0.30;;
70138;SDS011;57507;43.056;0.150;2022-12-07T03:37:32;0.40;;;0.40;;
70138;SDS011;57507;43.056;0.150;2022-12-07T03:39:37;0.35;;;0.35;;
70138;SDS011;57507;43.056;0.150;2022-12-07T03:42:05;0.50;;;0.50;;
70138;SDS011;57507;43.056;0.150;2022-12-07T03:44:32;0.70;;;0.50;;
70138;SDS011;57507;43.056;0.150;2022-12-07T03:47:05;0.57;;;0.40;;
70138;SDS011;57507;43.056;0.150;2022-12-07T03:56:57;1.20;;;0.47;;
70138;SDS011;57507;43.056;0.150;2022-12-07T03:59:23;0.98;;;0.57;;
70138;SDS011;57507;43.056;0.150;2022-12-07T04:01:57;1.08;;;0.40;;
70138;SDS011;57507;43.056;0.150;2022-12-07T04:04:26;0.55;;;0.40;;
70138;SDS011;57507;43.056;0.150;2022-12-07T04:06:53;0.47;;;0.45;;
70138;SDS011;57507;43.056;0.150;2022-12-07T04:09:19;1.92;;;0.45;;
70138;SDS011;57507;43.056;0.150;2022-12-07T04:11:46;2.08;;;0.63;;
70138;SDS011;57507;43.056;0.150;2022-12-07T04:14:12;0.65;;;0.50;;
70138;SDS011;57507;43.056;0.150;2022-12-07T04:16:45;2.15;;;0.52;;
70138;SDS011;57507;43.056;0.150;2022-12-07T04:19:11;0.57;;;0.55;;
70138;SDS011;57507;43.056;0.150;2022-12-07T04:21:37;0.80;;;0.60;;
70138;SDS011;57507;43.056;0.150;2022-12-07T04:24:04;1.83;;;0.80;;
70138;SDS011;57507;43.056;0.150;2022-12-07T04:26:30;1.48;;;0.60;;
70138;SDS011;57507;43.056;0.150;2022-12-07T04:28:56;3.95;;;0.98;;
70138;SDS011;57507;43.056;0.150;2022-12-07T04:31:22;0.90;;;0.50;;
70138;SDS011;57507;43.056;0.150;2022-12-07T04:33:48;0.88;;;0.52;;
70138;SDS011;57507;43.056;0.150;2022-12-07T04:36:14;0.70;;;0.43;;
70138;SDS011;57507;43.056;0.150;2022-12-07T04:38:40;1.40;;;0.45;;
70138;SDS011;57507;43.056;0.150;2022-12-07T04:41:07;0.70;;;0.40;;
70138;SDS011;57507;43.056;0.150;2022-12-07T04:43:33;1.48;;;0.60;;
70138;SDS011;57507;43.056;0.150;2022-12-07T04:45:59;1.17;;;0.55;;
70138;SDS011;57507;43.056;0.150;2022-12-07T04:48:25;0.50;;;0.50;;
70138;SDS011;57507;43.056;0.150;2022-12-07T04:50:51;0.85;;;0.35;;
70138;SDS011;57507;43.056;0.150;2022-12-07T04:53:18;0.68;;;0.50;;
70138;SDS011;57507;43.056;0.150;2022-12-07T04:55:44;0.50;;;0.50;;
70138;SDS011;57507;43.056;0.150;2022-12-07T04:58:11;3.38;;;0.73;;
70138;SDS011;57507;43.056;0.150;2022-12-07T05:00:37;0.68;;;0.50;;
70138;SDS011;57507;43.056;0.150;2022-12-07T05:03:03;0.80;;;0.60;;
70138;SDS011;57507;43.056;0.150;2022-12-07T05:05:29;0.98;;;0.50;;
70138;SDS011;57507;43.056;0.150;2022-12-07T05:07:55;1.15;;;0.50;;
70138;SDS011;57507;43.056;0.150;2022-12-07T05:10:21;0.70;;;0.40;;
70138;SDS011;57507;43.056;0.150;2022-12-07T05:12:47;0.55;;;0.50;;
70138;SDS011;57507;43.056;0.150;2022-12-07T05:15:14;0.70;;;0.47;;
70138;SDS011;57507;43.056;0.150;2022-12-07T05:17:40;0.68;;;0.52;;
70138;SDS011;57507;43.056;0.150;2022-12-07T05:20:07;0.70;;;0.55;;
70138;SDS011;57507;43.056;0.150;2022-12-07T05:22:33;1.17;;;0.60;;
70138;SDS011;57507;43.056;0.150;2022-12-07T05:24:59;2.03;;;0.52;;
70138;SDS011;57507;43.056;0.150;2022-12-07T05:27:25;1.13;;;0.55;;
70138;SDS011;57507;43.056;0.150;2022-12-07T05:29:51;0.85;;;0.68;;
70138;SDS011;57507;43.056;0.150;2022-12-07T05:32:17;0.40;;;0.40;;
70138;SDS011;57507;43.056;0.150;2022-12-07T05:34:43;0.60;;;0.50;;
70138;SDS011;57507;43.056;0.150;2022-12-07T05:37:09;1.38;;;0.90;;
70138;SDS011;57507;43.056;0.150;2022-12-07T05:39:35;0.50;;;0.50;;
70138;SDS011;57507;43.056;0.150;2022-12-07T05:42:05;1.60;;;0.90;;
70138;SDS011;57507;43.056;0.150;2022-12-07T05:44:41;1.67;;;1.05;;
70138;SDS011;57507;43.056;0.150;2022-12-07T05:47:08;0.60;;;0.60;;
70138;SDS011;57507;43.056;0.150;2022-12-07T05:49:34;0.50;;;0.50;;
70138;SDS011;57507;43.056;0.150;2022-12-07T05:52:00;0.63;;;0.50;;
70138;SDS011;57507;43.056;0.150;2022-12-07T05:54:26;0.57;;;0.50;;
70138;SDS011;57507;43.056;0.150;2022-12-07T05:56:52;2.67;;;0.60;;
70138;SDS011;57507;43.056;0.150;2022-12-07T05:59:18;0.70;;;0.50;;
70138;SDS011;57507;43.056;0.150;2022-12-07T06:04:23;1.98;;;0.60;;
70138;SDS011;57507;43.056;0.150;2022-12-07T06:06:49;0.85;;;0.47;;
70138;SDS011;57507;43.056;0.150;2022-12-07T06:09:16;1.83;;;0.60;;
70138;SDS011;57507;43.056;0.150;2022-12-07T06:11:43;1.23;;;0.45;;
70138;SDS011;57507;43.056;0.150;2022-12-07T06:14:28;0.70;;;0.60;;
70138;SDS011;57507;43.056;0.150;2022-12-07T06:16:54;1.10;;;0.55;;
70138;SDS011;57507;43.056;0.150;2022-12-07T06:19:20;1.70;;;0.68;;
70138;SDS011;57507;43.056;0.150;2022-12-07T06:21:46;2.03;;;0.65;;
70138;SDS011;57507;43.056;0.150;2022-12-07T06:24:13;1.15;;;0.70;;
70138;SDS011;57507;43.056;0.150;2022-12-07T06:26:39;0.70;;;0.60;;
70138;SDS011;57507;43.056;0.150;2022-12-07T06:29:05;1.33;;;0.55;;
70138;SDS011;57507;43.056;0.150;2022-12-07T06:31:31;0.80;;;0.43;;
70138;SDS011;57507;43.056;0.150;2022-12-07T06:34:01;0.88;;;0.88;;
70138;SDS011;57507;43.056;0.150;2022-12-07T06:36:27;1.35;;;0.80;;
70138;SDS011;57507;43.056;0.150;2022-12-07T06:38:53;1.20;;;0.82;;
70138;SDS011;57507;43.056;0.150;2022-12-07T06:41:19;0.88;;;0.88;;
70138;SDS011;57507;43.056;0.150;2022-12-07T06:43:46;0.70;;;0.70;;
70138;SDS011;57507;43.056;0.150;2022-12-07T06:46:12;0.93;;;0.82;;
70138;SDS011;57507;43.056;0.150;2022-12-07T06:48:39;1.27;;;0.82;;
70138;SDS011;57507;43.056;0.150;2022-12-07T06:51:05;2.17;;;0.85;;
70138;SDS011;57507;43.056;0.150;2022-12-07T06:53:31;1.85;;;0.65;;
70138;SDS011;57507;43.056;0.150;2022-12-07T06:55:57;0.98;;;0.88;;
70138;SDS011;57507;43.056;0.150;2022-12-07T06:58:23;1.45;;;0.80;;
70138;SDS011;57507;43.056;0.150;2022-12-07T07:00:49;0.98;;;0.80;;
70138;SDS011;57507;43.056;0.150;2022-12-07T07:03:16;0.95;;;0.80;;
70138;SDS011;57507;43.056;0.150;2022-12-07T07:05:42;0.68;;;0.60;;
70138;SDS011;57507;43.056;0.150;2022-12-07T07:08:08;0.80;;;0.70;;
70138;SDS011;57507;43.056;0.150;2022-12-07T07:10:35;0.75;;;0.60;;
70138;SDS011;57507;43.056;0.150;2022-12-07T07:13:01;0.77;;;0.73;;
70138;SDS011;57507;43.056;0.150;2022-12-07T07:15:27;1.40;;;0.95;;
70138;SDS011;57507;43.056;0.150;2022-12-07T07:17:53;1.88;;;0.60;;
70138;SDS011;57507;43.056;0.150;2022-12-07T07:20:19;0.98;;;0.80;;
70138;SDS011;57507;43.056;0.150;2022-12-07T07:22:45;0.95;;;0.60;;
70138;SDS011;57507;43.056;0.150;2022-12-07T07:25:11;0.63;;;0.60;;
70138;SDS011;57507;43.056;0.150;2022-12-07T07:27:37;0.93;;;0.80;;
70138;SDS011;57507;43.056;0.150;2022-12-07T07:30:04;1.05;;;0.80;;
70138;SDS011;57507;43.056;0.150;2022-12-07T07:32:30;0.63;;;0.63;;
70138;SDS011;57507;43.056;0.150;2022-12-07T07:34:56;1.30;;;0.55;;
70138;SDS011;57507;43.056;0.150;2022-12-07T07:37:22;0.95;;;0.80;;
70138;SDS011;57507;43.056;0.150;2022-12-07T07:39:48;0.73;;;0.52;;
70138;SDS011;57507;43.056;0.150;2022-12-07T07:42:14;0.85;;;0.68;;
70138;SDS011;57507;43.056;0.150;2022-12-07T07:44:40;4.32;;;0.73;;
70138;SDS011;57507;43.056;0.150;2022-12-07T07:47:06;1.50;;;0.80;;
70138;SDS011;57507;43.056;0.150;2022-12-07T07:49:32;0.60;;;0.60;;
70138;SDS011;57507;43.056;0.150;2022-12-07T07:51:58;0.90;;;0.70;;
70138;SDS011;57507;43.056;0.150;2022-12-07T07:54:24;0.70;;;0.70;;
70138;SDS011;57507;43.056;0.150;2022-12-07T07:56:51;1.02;;;0.73;;
70138;SDS011;57507;43.056;0.150;2022-12-07T07:59:17;1.15;;;0.73;;
70138;SDS011;57507;43.056;0.150;2022-12-07T08:01:43;0.93;;;0.70;;
70138;SDS011;57507;43.056;0.150;2022-12-07T08:04:09;1.25;;;0.90;;
70138;SDS011;57507;43.056;0.150;2022-12-07T08:06:35;1.45;;;1.00;;
70138;SDS011;57507;43.056;0.150;2022-12-07T08:09:02;0.90;;;0.70;;
70138;SDS011;57507;43.056;0.150;2022-12-07T08:11:30;0.75;;;0.47;;
70138;SDS011;57507;43.056;0.150;2022-12-07T08:13:56;0.80;;;0.65;;
70138;SDS011;57507;43.056;0.150;2022-12-07T08:16:22;0.60;;;0.60;;
70138;SDS011;57507;43.056;0.150;2022-12-07T08:18:48;1.15;;;0.70;;
70138;SDS011;57507;43.056;0.150;2022-12-07T08:21:14;0.77;;;0.60;;
70138;SDS011;57507;43.056;0.150;2022-12-07T08:23:40;1.13;;;0.80;;
70138;SDS011;57507;43.056;0.150;2022-12-07T08:26:08;0.63;;;0.50;;
70138;SDS011;57507;43.056;0.150;2022-12-07T08:28:34;0.82;;;0.70;;
70138;SDS011;57507;43.056;0.150;2022-12-07T08:31:01;0.70;;;0.60;;
70138;SDS011;57507;43.056;0.150;2022-12-07T08:33:27;0.93;;;0.60;;
70138;SDS011;57507;43.056;0.150;2022-12-07T08:35:53;0.70;;;0.50;;
70138;SDS011;57507;43.056;0.150;2022-12-07T08:38:19;1.05;;;0.70;;
70138;SDS011;57507;43.056;0.150;2022-12-07T08:40:53;0.70;;;0.70;;
70138;SDS011;57507;43.056;0.150;2022-12-07T08:45:46;1.88;;;0.63;;
70138;SDS011;57507;43.056;0.150;2022-12-07T08:48:13;1.42;;;0.60;;
70138;SDS011;57507;43.056;0.150;2022-12-07T08:50:42;2.15;;;0.70;;
70138;SDS011;57507;43.056;0.150;2022-12-07T08:53:08;1.10;;;0.60;;
70138;SDS011;57507;43.056;0.150;2022-12-07T08:55:34;1.30;;;0.60;;
70138;SDS011;57507;43.056;0.150;2022-12-07T08:58:00;1.67;;;0.60;;
70138;SDS011;57507;43.056;0.150;2022-12-07T09:00:28;1.00;;;0.70;;
70138;SDS011;57507;43.056;0.150;2022-12-07T09:02:54;1.08;;;0.70;;
70138;SDS011;57507;43.056;0.150;2022-12-07T09:05:20;1.63;;;0.75;;
70138;SDS011;57507;43.056;0.150;2022-12-07T09:07:47;0.93;;;0.70;;
70138;SDS011;57507;43.056;0.150;2022-12-07T09:10:15;1.15;;;0.65;;
70138;SDS011;57507;43.056;0.150;2022-12-07T09:12:41;0.70;;;0.60;;
70138;SDS011;57507;43.056;0.150;2022-12-07T09:15:07;1.00;;;0.60;;
70138;SDS011;57507;43.056;0.150;2022-12-07T09:17:33;0.95;;;0.75;;
70138;SDS011;57507;43.056;0.150;2022-12-07T09:20:00;0.63;;;0.60;;
70138;SDS011;57507;43.056;0.150;2022-12-07T09:22:29;0.88;;;0.70;;
70138;SDS011;57507;43.056;0.150;2022-12-07T09:24:56;3.40;;;0.70;;
70138;SDS011;57507;43.056;0.150;2022-12-07T09:27:22;0.90;;;0.50;;
70138;SDS011;57507;43.056;0.150;2022-12-07T09:29:48;1.92;;;1.00;;
70138;SDS011;57507;43.056;0.150;2022-12-07T09:32:15;1.23;;;0.70;;
70138;SDS011;57507;43.056;0.150;2022-12-07T09:34:41;2.63;;;1.23;;
70138;SDS011;57507;43.056;0.150;2022-12-07T09:37:07;2.65;;;0.95;;
70138;SDS011;57507;43.056;0.150;2022-12-07T09:39:33;1.52;;;0.80;;
70138;SDS011;57507;43.056;0.150;2022-12-07T09:41:59;2.65;;;0.60;;
70138;SDS011;57507;43.056;0.150;2022-12-07T09:44:28;3.17;;;0.80;;
70138;SDS011;57507;43.056;0.150;2022-12-07T09:46:54;1.10;;;0.82;;
70138;SDS011;57507;43.056;0.150;2022-12-07T09:49:22;7.28;;;1.60;;
70138;SDS011;57507;43.056;0.150;2022-12-07T09:51:59;3.85;;;1.40;;
70138;SDS011;57507;43.056;0.150;2022-12-07T09:54:26;3.85;;;1.35;;
70138;SDS011;57507;43.056;0.150;2022-12-07T09:56:52;3.85;;;1.75;;
70138;SDS011;57507;43.056;0.150;2022-12-07T09:59:18;1.60;;;1.05;;
70138;SDS011;57507;43.056;0.150;2022-12-07T10:01:48;2.25;;;1.10;;
70138;SDS011;57507;43.056;0.150;2022-12-07T10:04:15;1.73;;;0.95;;
70138;SDS011;57507;43.056;0.150;2022-12-07T10:06:42;2.65;;;1.20;;
70138;SDS011;57507;43.056;0.150;2022-12-07T10:09:12;2.03;;;1.27;;
70138;SDS011;57507;43.056;0.150;2022-12-07T10:14:23;5.60;;;2.40;;
70138;SDS011;57507;43.056;0.150;2022-12-07T10:16:49;2.40;;;1.10;;
70138;SDS011;57507;43.056;0.150;2022-12-07T10:19:20;2.13;;;1.40;;
70138;SDS011;57507;43.056;0.150;2022-12-07T10:21:58;2.25;;;1.13;;
70138;SDS011;57507;43.056;0.150;2022-12-07T10:24:24;2.33;;;1.35;;
70138;SDS011;57507;43.056;0.150;2022-12-07T10:26:51;2.63;;;1.30;;
70138;SDS011;57507;43.056;0.150;2022-12-07T10:29:36;2.88;;;1.50;;
70138;SDS011;57507;43.056;0.150;2022-12-07T10:32:25;2.38;;;1.52;;
70138;SDS011;57507;43.056;0.150;2022-12-07T10:34:49;2.22;;;1.00;;
70138;SDS011;57507;43.056;0.150;2022-12-07T10:37:16;4.22;;;1.50;;
70138;SDS011;57507;43.056;0.150;2022-12-07T10:42:44;5.95;;;1.60;;
70138;SDS011;57507;43.056;0.150;2022-12-07T10:50:49;1.63;;;1.15;;
70138;SDS011;57507;43.056;0.150;2022-12-07T10:52:58;2.35;;;1.50;;
70138;SDS011;57507;43.056;0.150;2022-12-07T11:11:38;3.45;;;1.75;;
70138;SDS011;57507;43.056;0.150;2022-12-07T11:21:57;4.68;;;1.55;;
70138;SDS011;57507;43.056;0.150;2022-12-07T11:34:35;2.53;;;1.10;;
70138;SDS011;57507;43.056;0.150;2022-12-07T11:37:02;1.67;;;1.00;;
70138;SDS011;57507;43.056;0.150;2022-12-07T11:39:51;2.03;;;1.40;;
70138;SDS011;57507;43.056;0.150;2022-12-07T11:42:22;2.28;;;1.65;;
70138;SDS011;57507;43.056;0.150;2022-12-07T11:47:27;2.55;;;1.58;;
70138;SDS011;57507;43.056;0.150;2022-12-07T11:49:55;2.65;;;1.45;;
70138;SDS011;57507;43.056;0.150;2022-12-07T11:54:52;3.88;;;2.22;;
70138;SDS011;57507;43.056;0.150;2022-12-07T11:57:32;3.42;;;1.48;;
70138;SDS011;57507;43.056;0.150;2022-12-07T12:00:01;2.78;;;1.63;;
70138;SDS011;57507;43.056;0.150;2022-12-07T12:02:38;2.55;;;1.50;;
70138;SDS011;57507;43.056;0.150;2022-12-07T12:05:16;2.92;;;1.58;;
70138;SDS011;57507;43.056;0.150;2022-12-07T12:07:43;3.10;;;2.15;;
70138;SDS011;57507;43.056;0.150;2022-12-07T12:10:45;2.47;;;1.70;;
70138;SDS011;57507;43.056;0.150;2022-12-07T12:13:21;4.95;;;2.50;;
70138;SDS011;57507;43.056;0.150;2022-12-07T12:15:56;3.78;;;1.95;;
70138;SDS011;57507;43.056;0.150;2022-12-07T12:20:56;4.45;;;2.50;;
70138;SDS011;57507;43.056;0.150;2022-12-07T12:23:24;2.97;;;2.28;;
70138;SDS011;57507;43.056;0.150;2022-12-07T12:25:53;4.60;;;2.33;;
70138;SDS011;57507;43.056;0.150;2022-12-07T12:28:24;3.97;;;2.63;;
70138;SDS011;57507;43.056;0.150;2022-12-07T12:33:37;4.07;;;2.35;;
70138;SDS011;57507;43.056;0.150;2022-12-07T12:38:51;3.58;;;2.40;;
70138;SDS011;57507;43.056;0.150;2022-12-07T12:54:36;6.57;;;2.83;;
70138;SDS011;57507;43.056;0.150;2022-12-07T12:57:07;4.82;;;2.17;;
70138;SDS011;57507;43.056;0.150;2022-12-07T12:59:38;3.10;;;2.10;;
70138;SDS011;57507;43.056;0.150;2022-12-07T13:12:58;3.17;;;2.20;;
70138;SDS011;57507;43.056;0.150;2022-12-07T13:15:43;3.35;;;2.20;;
70138;SDS011;57507;43.056;0.150;2022-12-07T13:20:51;3.97;;;3.08;;
70138;SDS011;57507;43.056;0.150;2022-12-07T13:23:18;4.00;;;2.85;;
70138;SDS011;57507;43.056;0.150;2022-12-07T13:25:54;2.78;;;2.17;;
70138;SDS011;57507;43.056;0.150;2022-12-07T13:28:21;4.20;;;2.70;;
70138;SDS011;57507;43.056;0.150;2022-12-07T13:33:23;2.92;;;2.13;;
70138;SDS011;57507;43.056;0.150;2022-12-07T13:35:53;4.68;;;3.20;;
70138;SDS011;57507;43.056;0.150;2022-12-07T13:38:25;5.35;;;2.92;;
70138;SDS011;57507;43.056;0.150;2022-12-07T13:41:11;5.47;;;2.72;;
70138;SDS011;57507;43.056;0.150;2022-12-07T13:46:27;3.55;;;2.38;;
70138;SDS011;57507;43.056;0.150;2022-12-07T13:48:55;5.47;;;2.60;;
70138;SDS011;57507;43.056;0.150;2022-12-07T13:51:23;3.53;;;2.45;;
70138;SDS011;57507;43.056;0.150;2022-12-07T13:53:51;3.40;;;2.30;;
70138;SDS011;57507;43.056;0.150;2022-12-07T13:56:17;4.97;;;2.88;;
70138;SDS011;57507;43.056;0.150;2022-12-07T13:58:43;3.85;;;2.60;;
70138;SDS011;57507;43.056;0.150;2022-12-07T14:01:09;4.13;;;2.70;;
70138;SDS011;57507;43.056;0.150;2022-12-07T14:03:36;5.07;;;2.58;;
70138;SDS011;57507;43.056;0.150;2022-12-07T14:06:46;4.07;;;2.50;;
70138;SDS011;57507;43.056;0.150;2022-12-07T14:09:09;4.18;;;2.92;;
70138;SDS011;57507;43.056;0.150;2022-12-07T14:11:42;3.30;;;2.20;;
70138;SDS011;57507;43.056;0.150;2022-12-07T14:14:11;4.30;;;2.38;;
70138;SDS011;57507;43.056;0.150;2022-12-07T14:16:39;7.38;;;4.15;;
70138;SDS011;57507;43.056;0.150;2022-12-07T14:22:37;2.67;;;2.15;;
70138;SDS011;57507;43.056;0.150;2022-12-07T14:24:42;4.28;;;2.97;;
70138;SDS011;57507;43.056;0.150;2022-12-07T14:27:18;4.85;;;3.25;;
70138;SDS011;57507;43.056;0.150;2022-12-07T14:29:45;5.35;;;2.95;;
70138;SDS011;57507;43.056;0.150;2022-12-07T14:37:25;4.07;;;2.92;;
70138;SDS011;57507;43.056;0.150;2022-12-07T14:39:51;3.17;;;2.85;;
70138;SDS011;57507;43.056;0.150;2022-12-07T14:42:17;6.63;;;3.30;;
70138;SDS011;57507;43.056;0.150;2022-12-07T14:44:44;4.60;;;2.63;;
70138;SDS011;57507;43.056;0.150;2022-12-07T14:47:10;3.92;;;2.42;;
70138;SDS011;57507;43.056;0.150;2022-12-07T14:49:36;5.15;;;2.70;;
70138;SDS011;57507;43.056;0.150;2022-12-07T14:52:02;6.50;;;3.50;;
70138;SDS011;57507;43.056;0.150;2022-12-07T14:54:29;6.72;;;4.10;;
70138;SDS011;57507;43.056;0.150;2022-12-07T14:56:56;4.95;;;3.47;;
70138;SDS011;57507;43.056;0.150;2022-12-07T14:59:22;4.32;;;2.88;;
70138;SDS011;57507;43.056;0.150;2022-12-07T15:01:48;4.88;;;2.60;;
70138;SDS011;57507;43.056;0.150;2022-12-07T15:04:14;9.98;;;4.97;;
70138;SDS011;57507;43.056;0.150;2022-12-07T15:06:40;8.73;;;4.57;;
70138;SDS011;57507;43.056;0.150;2022-12-07T15:09:10;5.38;;;3.35;;
70138;SDS011;57507;43.056;0.150;2022-12-07T15:11:36;4.97;;;3.10;;
70138;SDS011;57507;43.056;0.150;2022-12-07T15:14:02;4.63;;;3.05;;
70138;SDS011;57507;43.056;0.150;2022-12-07T15:16:37;4.35;;;3.05;;
70138;SDS011;57507;43.056;0.150;2022-12-07T15:19:05;3.50;;;2.78;;
70138;SDS011;57507;43.056;0.150;2022-12-07T15:21:31;5.07;;;3.08;;
70138;SDS011;57507;43.056;0.150;2022-12-07T15:23:57;4.30;;;2.90;;
70138;SDS011;57507;43.056;0.150;2022-12-07T15:26:23;4.53;;;3.00;;
70138;SDS011;57507;43.056;0.150;2022-12-07T15:28:49;5.57;;;3.45;;
70138;SDS011;57507;43.056;0.150;2022-12-07T15:31:16;7.13;;;4.65;;
70138;SDS011;57507;43.056;0.150;2022-12-07T15:33:42;6.47;;;4.30;;
70138;SDS011;57507;43.056;0.150;2022-12-07T15:36:09;5.03;;;3.03;;
70138;SDS011;57507;43.056;0.150;2022-12-07T15:38:39;4.03;;;3.10;;
70138;SDS011;57507;43.056;0.150;2022-12-07T15:41:05;4.15;;;2.90;;
70138;SDS011;57507;43.056;0.150;2022-12-07T15:43:31;4.20;;;3.00;;
70138;SDS011;57507;43.056;0.150;2022-12-07T15:46:16;4.50;;;2.70;;
70138;SDS011;57507;43.056;0.150;2022-12-07T15:48:45;5.35;;;2.85;;
70138;SDS011;57507;43.056;0.150;2022-12-07T15:51:11;3.63;;;2.70;;
70138;SDS011;57507;43.056;0.150;2022-12-07T15:53:37;4.00;;;2.90;;
70138;SDS011;57507;43.056;0.150;2022-12-07T15:56:06;4.88;;;2.72;;
70138;SDS011;57507;43.056;0.150;2022-12-07T15:58:33;6.78;;;3.40;;
70138;SDS011;57507;43.056;0.150;2022-12-07T16:00:59;4.70;;;3.00;;
70138;SDS011;57507;43.056;0.150;2022-12-07T16:03:26;5.10;;;3.50;;
70138;SDS011;57507;43.056;0.150;2022-12-07T16:05:52;5.15;;;2.92;;
70138;SDS011;57507;43.056;0.150;2022-12-07T16:08:18;4.25;;;2.75;;
70138;SDS011;57507;43.056;0.150;2022-12-07T16:10:45;5.57;;;2.83;;
70138;SDS011;57507;43.056;0.150;2022-12-07T16:13:11;4.85;;;2.70;;
70138;SDS011;57507;43.056;0.150;2022-12-07T16:15:39;4.35;;;2.85;;
70138;SDS011;57507;43.056;0.150;2022-12-07T16:18:05;3.70;;;2.70;;
70138;SDS011;57507;43.056;0.150;2022-12-07T16:20:31;4.20;;;2.67;;
70138;SDS011;57507;43.056;0.150;2022-12-07T16:22:57;4.78;;;2.90;;
70138;SDS011;57507;43.056;0.150;2022-12-07T16:25:23;3.83;;;2.47;;
70138;SDS011;57507;43.056;0.150;2022-12-07T16:27:50;4.00;;;2.35;;
70138;SDS011;57507;43.056;0.150;2022-12-07T16:30:16;3.40;;;2.20;;
70138;SDS011;57507;43.056;0.150;2022-12-07T16:32:42;3.47;;;2.65;;
70138;SDS011;57507;43.056;0.150;2022-12-07T16:35:08;4.38;;;3.25;;
70138;SDS011;57507;43.056;0.150;2022-12-07T16:37:34;3.65;;;2.50;;
70138;SDS011;57507;43.056;0.150;2022-12-07T16:40:00;3.80;;;2.90;;
70138;SDS011;57507;43.056;0.150;2022-12-07T16:42:28;4.72;;;2.60;;
70138;SDS011;57507;43.056;0.150;2022-12-07T16:44:56;5.18;;;3.08;;
70138;SDS011;57507;43.056;0.150;2022-12-07T16:47:22;5.22;;;3.30;;
70138;SDS011;57507;43.056;0.150;2022-12-07T16:49:49;4.45;;;2.75;;
70138;SDS011;57507;43.056;0.150;2022-12-07T16:52:15;4.63;;;3.13;;
70138;SDS011;57507;43.056;0.150;2022-12-07T16:54:41;5.22;;;2.92;;
70138;SDS011;57507;43.056;0.150;2022-12-07T16:57:07;3.85;;;2.60;;
70138;SDS011;57507;43.056;0.150;2022-12-07T16:59:33;5.57;;;3.00;;
70138;SDS011;57507;43.056;0.150;2022-12-07T17:01:59;4.53;;;2.88;;
70138;SDS011;57507;43.056;0.150;2022-12-07T17:04:26;4.78;;;2.95;;
70138;SDS011;57507;43.056;0.150;2022-12-07T17:06:52;4.65;;;2.95;;
70138;SDS011;57507;43.056;0.150;2022-12-07T17:09:18;4.80;;;3.00;;
70138;SDS011;57507;43.056;0.150;2022-12-07T17:11:44;4.72;;;2.92;;